sensor_id;sensor_type;location;lat;lon;timestamp;P1;durP1;ratioP1;P2;durP2;ratioP2
27857;SDS011;16852;51.446;6.528;2024-02-26T00:00:17;3.17;;;1.58;;
27857;SDS011;16852;51.446;6.528;2024-02-26T00:02:21;4.78;;;1.77;;
27857;SDS011;16852;51.446;6.528;2024-02-26T00:04:22;2.83;;;1.35;;
27857;SDS011;16852;51.446;6.528;2024-02-26T00:06:25;2.15;;;1.30;;
27857;SDS011;16852;51.446;6.528;2024-02-26T00:08:26;2.95;;;1.48;;
27857;SDS011;16852;51.446;6.528;2024-02-26T00:10:26;5.88;;;1.60;;
27857;SDS011;16852;51.446;6.528;2024-02-26T00:12:28;3.58;;;1.67;;
27857;SDS011;16852;51.446;6.528;2024-02-26T00:14:28;2.50;;;1.20;;
27857;SDS011;16852;51.446;6.528;2024-02-26T00:16:29;3.55;;;1.88;;
27857;SDS011;16852;51.446;6.528;2024-02-26T00:18:30;3.80;;;1.75;;
27857;SDS011;16852;51.446;6.528;2024-02-26T00:20:31;2.65;;;1.40;;
27857;SDS011;16852;51.446;6.528;2024-02-26T00:22:32;3.30;;;1.77;;
27857;SDS011;16852;51.446;6.528;2024-02-26T00:24:32;3.75;;;1.90;;
27857;SDS011;16852;51.446;6.528;2024-02-26T00:26:33;3.15;;;1.38;;
27857;SDS011;16852;51.446;6.528;2024-02-26T00:28:34;3.75;;;1.85;;
27857;SDS011;16852;51.446;6.528;2024-02-26T00:30:34;4.25;;;2.03;;
27857;SDS011;16852;51.446;6.528;2024-02-26T00:32:35;3.28;;;1.83;;
27857;SDS011;16852;51.446;6.528;2024-02-26T00:34:35;3.72;;;1.65;;
27857;SDS011;16852;51.446;6.528;2024-02-26T00:36:36;3.80;;;1.85;;
27857;SDS011;16852;51.446;6.528;2024-02-26T00:38:37;3.03;;;1.58;;
27857;SDS011;16852;51.446;6.528;2024-02-26T00:40:37;4.78;;;2.08;;
27857;SDS011;16852;51.446;6.528;2024-02-26T00:42:38;3.58;;;1.67;;
27857;SDS011;16852;51.446;6.528;2024-02-26T00:44:38;8.20;;;2.78;;
27857;SDS011;16852;51.446;6.528;2024-02-26T00:46:39;5.03;;;2.67;;
27857;SDS011;16852;51.446;6.528;2024-02-26T00:48:40;5.97;;;2.88;;
27857;SDS011;16852;51.446;6.528;2024-02-26T00:50:40;4.65;;;2.53;;
27857;SDS011;16852;51.446;6.528;2024-02-26T00:52:41;4.63;;;2.35;;
27857;SDS011;16852;51.446;6.528;2024-02-26T00:54:42;4.30;;;1.65;;
27857;SDS011;16852;51.446;6.528;2024-02-26T00:56:42;4.75;;;1.92;;
27857;SDS011;16852;51.446;6.528;2024-02-26T00:58:43;3.47;;;1.83;;
27857;SDS011;16852;51.446;6.528;2024-02-26T01:00:43;4.18;;;1.95;;
27857;SDS011;16852;51.446;6.528;2024-02-26T01:02:44;2.70;;;1.35;;
27857;SDS011;16852;51.446;6.528;2024-02-26T01:04:47;2.80;;;1.70;;
27857;SDS011;16852;51.446;6.528;2024-02-26T01:06:48;3.67;;;1.65;;
27857;SDS011;16852;51.446;6.528;2024-02-26T01:08:49;2.67;;;1.67;;
27857;SDS011;16852;51.446;6.528;2024-02-26T01:10:50;2.85;;;1.75;;
27857;SDS011;16852;51.446;6.528;2024-02-26T01:12:51;2.83;;;1.70;;
27857;SDS011;16852;51.446;6.528;2024-02-26T01:14:51;5.20;;;1.85;;
27857;SDS011;16852;51.446;6.528;2024-02-26T01:16:52;3.72;;;1.88;;
27857;SDS011;16852;51.446;6.528;2024-02-26T01:18:52;6.55;;;2.20;;
27857;SDS011;16852;51.446;6.528;2024-02-26T01:20:53;2.45;;;1.80;;
27857;SDS011;16852;51.446;6.528;2024-02-26T01:22:54;3.42;;;1.90;;
27857;SDS011;16852;51.446;6.528;2024-02-26T01:24:55;4.95;;;2.28;;
27857;SDS011;16852;51.446;6.528;2024-02-26T01:26:56;5.80;;;2.30;;
27857;SDS011;16852;51.446;6.528;2024-02-26T01:28:57;6.35;;;2.35;;
27857;SDS011;16852;51.446;6.528;2024-02-26T01:30:58;3.38;;;2.00;;
27857;SDS011;16852;51.446;6.528;2024-02-26T01:32:59;7.23;;;2.93;;
27857;SDS011;16852;51.446;6.528;2024-02-26T01:35:00;3.60;;;1.58;;
27857;SDS011;16852;51.446;6.528;2024-02-26T01:37:03;4.97;;;2.10;;
27857;SDS011;16852;51.446;6.528;2024-02-26T01:39:04;3.95;;;2.13;;
27857;SDS011;16852;51.446;6.528;2024-02-26T01:41:05;3.42;;;2.20;;
27857;SDS011;16852;51.446;6.528;2024-02-26T01:43:06;6.20;;;2.25;;
27857;SDS011;16852;51.446;6.528;2024-02-26T01:45:08;6.07;;;2.15;;
27857;SDS011;16852;51.446;6.528;2024-02-26T01:47:16;4.78;;;2.30;;
27857;SDS011;16852;51.446;6.528;2024-02-26T01:49:17;6.18;;;2.30;;
27857;SDS011;16852;51.446;6.528;2024-02-26T01:51:17;3.47;;;1.95;;
27857;SDS011;16852;51.446;6.528;2024-02-26T01:53:18;4.97;;;2.13;;
27857;SDS011;16852;51.446;6.528;2024-02-26T01:55:20;7.07;;;2.60;;
27857;SDS011;16852;51.446;6.528;2024-02-26T01:57:23;5.93;;;2.40;;
27857;SDS011;16852;51.446;6.528;2024-02-26T01:59:24;5.53;;;2.25;;
27857;SDS011;16852;51.446;6.528;2024-02-26T02:01:25;5.53;;;2.13;;
27857;SDS011;16852;51.446;6.528;2024-02-26T02:03:27;5.43;;;2.10;;
27857;SDS011;16852;51.446;6.528;2024-02-26T02:05:28;3.58;;;2.05;;
27857;SDS011;16852;51.446;6.528;2024-02-26T02:07:29;4.45;;;2.13;;
27857;SDS011;16852;51.446;6.528;2024-02-26T02:09:30;4.10;;;2.00;;
27857;SDS011;16852;51.446;6.528;2024-02-26T02:11:32;4.90;;;2.15;;
27857;SDS011;16852;51.446;6.528;2024-02-26T02:13:33;2.22;;;1.52;;
27857;SDS011;16852;51.446;6.528;2024-02-26T02:15:34;3.08;;;1.95;;
27857;SDS011;16852;51.446;6.528;2024-02-26T02:17:35;3.03;;;1.40;;
27857;SDS011;16852;51.446;6.528;2024-02-26T02:19:36;1.45;;;1.33;;
27857;SDS011;16852;51.446;6.528;2024-02-26T02:21:36;3.03;;;1.70;;
27857;SDS011;16852;51.446;6.528;2024-02-26T02:23:37;3.97;;;1.92;;
27857;SDS011;16852;51.446;6.528;2024-02-26T02:25:38;4.00;;;1.58;;
27857;SDS011;16852;51.446;6.528;2024-02-26T02:27:39;3.42;;;1.60;;
27857;SDS011;16852;51.446;6.528;2024-02-26T02:29:40;3.30;;;1.50;;
27857;SDS011;16852;51.446;6.528;2024-02-26T02:31:41;4.32;;;1.80;;
27857;SDS011;16852;51.446;6.528;2024-02-26T02:33:42;3.83;;;1.70;;
27857;SDS011;16852;51.446;6.528;2024-02-26T02:35:43;3.35;;;1.58;;
27857;SDS011;16852;51.446;6.528;2024-02-26T02:37:44;3.60;;;1.65;;
27857;SDS011;16852;51.446;6.528;2024-02-26T02:39:47;3.17;;;1.60;;
27857;SDS011;16852;51.446;6.528;2024-02-26T02:41:48;4.53;;;2.00;;
27857;SDS011;16852;51.446;6.528;2024-02-26T02:43:48;4.85;;;2.20;;
27857;SDS011;16852;51.446;6.528;2024-02-26T02:45:49;4.63;;;1.83;;
27857;SDS011;16852;51.446;6.528;2024-02-26T02:47:49;3.28;;;1.80;;
27857;SDS011;16852;51.446;6.528;2024-02-26T02:49:50;3.65;;;1.80;;
27857;SDS011;16852;51.446;6.528;2024-02-26T02:51:51;4.30;;;2.22;;
27857;SDS011;16852;51.446;6.528;2024-02-26T02:53:53;3.60;;;1.98;;
27857;SDS011;16852;51.446;6.528;2024-02-26T02:55:54;7.07;;;2.70;;
27857;SDS011;16852;51.446;6.528;2024-02-26T02:57:54;7.78;;;2.72;;
27857;SDS011;16852;51.446;6.528;2024-02-26T02:59:55;6.47;;;2.85;;
27857;SDS011;16852;51.446;6.528;2024-02-26T03:01:55;7.95;;;3.63;;
27857;SDS011;16852;51.446;6.528;2024-02-26T03:03:56;9.93;;;3.88;;
27857;SDS011;16852;51.446;6.528;2024-02-26T03:05:57;7.07;;;3.05;;
27857;SDS011;16852;51.446;6.528;2024-02-26T03:07:58;6.68;;;2.88;;
27857;SDS011;16852;51.446;6.528;2024-02-26T03:09:58;6.80;;;3.15;;
27857;SDS011;16852;51.446;6.528;2024-02-26T03:11:59;8.27;;;2.38;;
27857;SDS011;16852;51.446;6.528;2024-02-26T03:13:59;3.33;;;2.15;;
27857;SDS011;16852;51.446;6.528;2024-02-26T03:16:05;4.25;;;2.47;;
27857;SDS011;16852;51.446;6.528;2024-02-26T03:18:06;3.33;;;2.00;;
27857;SDS011;16852;51.446;6.528;2024-02-26T03:20:08;6.00;;;2.38;;
27857;SDS011;16852;51.446;6.528;2024-02-26T03:22:09;6.07;;;2.60;;
27857;SDS011;16852;51.446;6.528;2024-02-26T03:24:10;5.45;;;2.40;;
27857;SDS011;16852;51.446;6.528;2024-02-26T03:26:11;5.93;;;2.40;;
27857;SDS011;16852;51.446;6.528;2024-02-26T03:28:14;5.75;;;3.00;;
27857;SDS011;16852;51.446;6.528;2024-02-26T03:30:15;8.48;;;2.80;;
27857;SDS011;16852;51.446;6.528;2024-02-26T03:32:16;10.30;;;3.15;;
27857;SDS011;16852;51.446;6.528;2024-02-26T03:34:17;6.45;;;3.13;;
27857;SDS011;16852;51.446;6.528;2024-02-26T03:38:21;7.57;;;2.85;;
27857;SDS011;16852;51.446;6.528;2024-02-26T03:40:22;6.05;;;3.10;;
27857;SDS011;16852;51.446;6.528;2024-02-26T03:42:24;5.07;;;2.35;;
27857;SDS011;16852;51.446;6.528;2024-02-26T03:44:24;4.85;;;2.22;;
27857;SDS011;16852;51.446;6.528;2024-02-26T03:46:25;8.40;;;3.03;;
27857;SDS011;16852;51.446;6.528;2024-02-26T03:48:26;4.00;;;2.42;;
27857;SDS011;16852;51.446;6.528;2024-02-26T03:50:26;5.40;;;2.22;;
27857;SDS011;16852;51.446;6.528;2024-02-26T03:52:27;4.22;;;2.05;;
27857;SDS011;16852;51.446;6.528;2024-02-26T03:54:27;4.43;;;2.35;;
27857;SDS011;16852;51.446;6.528;2024-02-26T03:56:28;3.45;;;1.90;;
27857;SDS011;16852;51.446;6.528;2024-02-26T03:58:29;3.78;;;2.30;;
27857;SDS011;16852;51.446;6.528;2024-02-26T04:00:29;5.00;;;1.67;;
27857;SDS011;16852;51.446;6.528;2024-02-26T04:02:30;6.35;;;2.10;;
27857;SDS011;16852;51.446;6.528;2024-02-26T04:04:33;6.93;;;2.10;;
27857;SDS011;16852;51.446;6.528;2024-02-26T04:06:34;4.20;;;2.08;;
27857;SDS011;16852;51.446;6.528;2024-02-26T04:08:35;5.68;;;2.28;;
27857;SDS011;16852;51.446;6.528;2024-02-26T04:10:35;6.13;;;2.70;;
27857;SDS011;16852;51.446;6.528;2024-02-26T04:12:39;4.68;;;2.33;;
27857;SDS011;16852;51.446;6.528;2024-02-26T04:14:43;3.97;;;2.00;;
27857;SDS011;16852;51.446;6.528;2024-02-26T04:16:44;6.28;;;1.90;;
27857;SDS011;16852;51.446;6.528;2024-02-26T04:18:45;3.08;;;1.80;;
27857;SDS011;16852;51.446;6.528;2024-02-26T04:20:46;4.13;;;1.98;;
27857;SDS011;16852;51.446;6.528;2024-02-26T04:22:47;4.88;;;2.25;;
27857;SDS011;16852;51.446;6.528;2024-02-26T04:24:47;5.05;;;1.83;;
27857;SDS011;16852;51.446;6.528;2024-02-26T04:26:48;2.83;;;1.88;;
27857;SDS011;16852;51.446;6.528;2024-02-26T04:28:49;4.03;;;2.10;;
27857;SDS011;16852;51.446;6.528;2024-02-26T04:30:50;4.05;;;2.05;;
27857;SDS011;16852;51.446;6.528;2024-02-26T04:32:51;6.45;;;2.45;;
27857;SDS011;16852;51.446;6.528;2024-02-26T04:34:51;4.85;;;1.90;;
27857;SDS011;16852;51.446;6.528;2024-02-26T04:36:52;3.47;;;2.00;;
27857;SDS011;16852;51.446;6.528;2024-02-26T04:38:52;3.63;;;2.05;;
27857;SDS011;16852;51.446;6.528;2024-02-26T04:40:55;3.72;;;2.08;;
27857;SDS011;16852;51.446;6.528;2024-02-26T04:42:56;5.05;;;1.77;;
27857;SDS011;16852;51.446;6.528;2024-02-26T04:44:57;3.72;;;2.08;;
27857;SDS011;16852;51.446;6.528;2024-02-26T04:46:58;3.63;;;1.65;;
27857;SDS011;16852;51.446;6.528;2024-02-26T04:48:58;4.38;;;2.13;;
27857;SDS011;16852;51.446;6.528;2024-02-26T04:50:59;3.72;;;1.67;;
27857;SDS011;16852;51.446;6.528;2024-02-26T04:53:00;3.33;;;1.60;;
27857;SDS011;16852;51.446;6.528;2024-02-26T04:55:01;4.13;;;1.70;;
27857;SDS011;16852;51.446;6.528;2024-02-26T04:57:02;2.53;;;1.77;;
27857;SDS011;16852;51.446;6.528;2024-02-26T04:59:04;4.60;;;1.63;;
27857;SDS011;16852;51.446;6.528;2024-02-26T05:01:05;4.05;;;1.70;;
27857;SDS011;16852;51.446;6.528;2024-02-26T05:03:06;3.72;;;2.28;;
27857;SDS011;16852;51.446;6.528;2024-02-26T05:05:07;2.57;;;1.67;;
27857;SDS011;16852;51.446;6.528;2024-02-26T05:07:12;5.32;;;1.80;;
27857;SDS011;16852;51.446;6.528;2024-02-26T05:09:13;4.45;;;1.80;;
27857;SDS011;16852;51.446;6.528;2024-02-26T05:11:14;2.42;;;1.60;;
27857;SDS011;16852;51.446;6.528;2024-02-26T05:13:14;3.20;;;1.90;;
27857;SDS011;16852;51.446;6.528;2024-02-26T05:15:17;3.55;;;1.27;;
27857;SDS011;16852;51.446;6.528;2024-02-26T05:17:18;3.83;;;1.85;;
27857;SDS011;16852;51.446;6.528;2024-02-26T05:19:19;3.80;;;1.70;;
27857;SDS011;16852;51.446;6.528;2024-02-26T05:21:19;4.82;;;1.92;;
27857;SDS011;16852;51.446;6.528;2024-02-26T05:23:20;4.03;;;2.10;;
27857;SDS011;16852;51.446;6.528;2024-02-26T05:25:21;5.75;;;2.15;;
27857;SDS011;16852;51.446;6.528;2024-02-26T05:27:21;4.95;;;1.92;;
27857;SDS011;16852;51.446;6.528;2024-02-26T05:29:22;3.88;;;1.90;;
27857;SDS011;16852;51.446;6.528;2024-02-26T05:31:22;2.83;;;1.70;;
27857;SDS011;16852;51.446;6.528;2024-02-26T05:33:23;2.97;;;1.85;;
27857;SDS011;16852;51.446;6.528;2024-02-26T05:35:24;6.18;;;2.53;;
27857;SDS011;16852;51.446;6.528;2024-02-26T05:37:28;3.15;;;1.88;;
27857;SDS011;16852;51.446;6.528;2024-02-26T05:39:29;3.13;;;1.98;;
27857;SDS011;16852;51.446;6.528;2024-02-26T05:41:29;2.92;;;1.60;;
27857;SDS011;16852;51.446;6.528;2024-02-26T05:43:30;3.22;;;1.80;;
27857;SDS011;16852;51.446;6.528;2024-02-26T05:45:30;3.30;;;2.00;;
27857;SDS011;16852;51.446;6.528;2024-02-26T05:47:32;3.75;;;1.90;;
27857;SDS011;16852;51.446;6.528;2024-02-26T05:49:33;2.80;;;1.70;;
27857;SDS011;16852;51.446;6.528;2024-02-26T05:51:34;5.38;;;1.85;;
27857;SDS011;16852;51.446;6.528;2024-02-26T05:53:34;5.05;;;2.55;;
27857;SDS011;16852;51.446;6.528;2024-02-26T05:55:35;3.63;;;1.98;;
27857;SDS011;16852;51.446;6.528;2024-02-26T05:57:35;3.78;;;2.00;;
27857;SDS011;16852;51.446;6.528;2024-02-26T05:59:36;3.00;;;1.92;;
27857;SDS011;16852;51.446;6.528;2024-02-26T06:01:37;4.30;;;2.25;;
27857;SDS011;16852;51.446;6.528;2024-02-26T06:03:37;3.83;;;2.08;;
27857;SDS011;16852;51.446;6.528;2024-02-26T06:05:38;3.20;;;2.10;;
27857;SDS011;16852;51.446;6.528;2024-02-26T06:07:42;4.95;;;2.20;;
27857;SDS011;16852;51.446;6.528;2024-02-26T06:09:42;5.43;;;2.20;;
27857;SDS011;16852;51.446;6.528;2024-02-26T06:11:43;3.33;;;2.10;;
27857;SDS011;16852;51.446;6.528;2024-02-26T06:13:44;4.15;;;1.92;;
27857;SDS011;16852;51.446;6.528;2024-02-26T06:15:44;4.90;;;2.00;;
27857;SDS011;16852;51.446;6.528;2024-02-26T06:17:45;8.40;;;2.17;;
27857;SDS011;16852;51.446;6.528;2024-02-26T06:19:47;3.85;;;2.20;;
27857;SDS011;16852;51.446;6.528;2024-02-26T06:21:48;4.43;;;1.77;;
27857;SDS011;16852;51.446;6.528;2024-02-26T06:23:49;4.47;;;2.10;;
27857;SDS011;16852;51.446;6.528;2024-02-26T06:25:50;3.95;;;2.05;;
27857;SDS011;16852;51.446;6.528;2024-02-26T06:27:54;4.35;;;2.17;;
27857;SDS011;16852;51.446;6.528;2024-02-26T06:29:56;4.30;;;2.47;;
27857;SDS011;16852;51.446;6.528;2024-02-26T06:31:57;3.38;;;1.80;;
27857;SDS011;16852;51.446;6.528;2024-02-26T06:33:57;6.55;;;2.22;;
27857;SDS011;16852;51.446;6.528;2024-02-26T06:35:58;3.55;;;1.80;;
27857;SDS011;16852;51.446;6.528;2024-02-26T06:37:59;3.80;;;1.90;;
27857;SDS011;16852;51.446;6.528;2024-02-26T06:40:01;4.00;;;2.20;;
27857;SDS011;16852;51.446;6.528;2024-02-26T06:42:06;5.07;;;2.60;;
27857;SDS011;16852;51.446;6.528;2024-02-26T06:44:06;3.70;;;2.15;;
27857;SDS011;16852;51.446;6.528;2024-02-26T06:46:07;4.28;;;2.22;;
27857;SDS011;16852;51.446;6.528;2024-02-26T06:48:08;3.90;;;2.20;;
27857;SDS011;16852;51.446;6.528;2024-02-26T06:50:11;3.40;;;1.75;;
27857;SDS011;16852;51.446;6.528;2024-02-26T06:52:13;4.05;;;1.73;;
27857;SDS011;16852;51.446;6.528;2024-02-26T06:54:14;6.70;;;2.40;;
27857;SDS011;16852;51.446;6.528;2024-02-26T06:56:14;2.80;;;1.98;;
27857;SDS011;16852;51.446;6.528;2024-02-26T06:58:15;4.53;;;2.20;;
27857;SDS011;16852;51.446;6.528;2024-02-26T07:00:17;2.35;;;1.85;;
27857;SDS011;16852;51.446;6.528;2024-02-26T07:02:18;3.50;;;2.10;;
27857;SDS011;16852;51.446;6.528;2024-02-26T07:04:19;6.63;;;2.47;;
27857;SDS011;16852;51.446;6.528;2024-02-26T07:06:20;3.72;;;2.03;;
27857;SDS011;16852;51.446;6.528;2024-02-26T07:08:22;4.20;;;2.10;;
27857;SDS011;16852;51.446;6.528;2024-02-26T07:10:23;5.20;;;2.20;;
27857;SDS011;16852;51.446;6.528;2024-02-26T07:12:24;3.33;;;2.03;;
27857;SDS011;16852;51.446;6.528;2024-02-26T07:14:25;4.97;;;2.35;;
27857;SDS011;16852;51.446;6.528;2024-02-26T07:16:26;2.97;;;1.83;;
27857;SDS011;16852;51.446;6.528;2024-02-26T07:18:27;2.75;;;2.00;;
27857;SDS011;16852;51.446;6.528;2024-02-26T07:20:27;4.63;;;1.95;;
27857;SDS011;16852;51.446;6.528;2024-02-26T07:22:31;4.65;;;2.28;;
27857;SDS011;16852;51.446;6.528;2024-02-26T07:24:32;3.85;;;2.25;;
27857;SDS011;16852;51.446;6.528;2024-02-26T07:26:33;6.55;;;2.72;;
27857;SDS011;16852;51.446;6.528;2024-02-26T07:28:34;4.47;;;2.47;;
27857;SDS011;16852;51.446;6.528;2024-02-26T07:30:35;3.50;;;2.15;;
27857;SDS011;16852;51.446;6.528;2024-02-26T07:32:35;4.63;;;2.30;;
27857;SDS011;16852;51.446;6.528;2024-02-26T07:34:36;6.45;;;3.00;;
27857;SDS011;16852;51.446;6.528;2024-02-26T07:36:39;2.45;;;1.80;;
27857;SDS011;16852;51.446;6.528;2024-02-26T07:38:40;3.80;;;2.22;;
27857;SDS011;16852;51.446;6.528;2024-02-26T07:40:40;4.28;;;2.20;;
27857;SDS011;16852;51.446;6.528;2024-02-26T07:42:41;5.13;;;2.40;;
27857;SDS011;16852;51.446;6.528;2024-02-26T07:44:42;4.15;;;2.30;;
27857;SDS011;16852;51.446;6.528;2024-02-26T07:46:43;3.78;;;2.55;;
27857;SDS011;16852;51.446;6.528;2024-02-26T07:48:44;3.17;;;2.10;;
27857;SDS011;16852;51.446;6.528;2024-02-26T07:50:45;3.67;;;2.10;;
27857;SDS011;16852;51.446;6.528;2024-02-26T07:52:46;3.75;;;2.13;;
27857;SDS011;16852;51.446;6.528;2024-02-26T07:54:46;4.63;;;2.00;;
27857;SDS011;16852;51.446;6.528;2024-02-26T07:56:47;6.40;;;2.20;;
27857;SDS011;16852;51.446;6.528;2024-02-26T07:58:47;3.58;;;2.15;;
27857;SDS011;16852;51.446;6.528;2024-02-26T08:00:48;2.92;;;2.20;;
27857;SDS011;16852;51.446;6.528;2024-02-26T08:02:49;3.67;;;2.40;;
27857;SDS011;16852;51.446;6.528;2024-02-26T08:04:50;3.05;;;2.03;;
27857;SDS011;16852;51.446;6.528;2024-02-26T08:06:50;3.20;;;2.10;;
27857;SDS011;16852;51.446;6.528;2024-02-26T08:08:51;4.18;;;2.25;;
27857;SDS011;16852;51.446;6.528;2024-02-26T08:10:52;4.43;;;2.28;;
27857;SDS011;16852;51.446;6.528;2024-02-26T08:12:53;4.53;;;2.10;;
27857;SDS011;16852;51.446;6.528;2024-02-26T08:14:54;3.88;;;1.95;;
27857;SDS011;16852;51.446;6.528;2024-02-26T08:16:55;4.97;;;2.13;;
27857;SDS011;16852;51.446;6.528;2024-02-26T08:18:56;6.57;;;2.40;;
27857;SDS011;16852;51.446;6.528;2024-02-26T08:20:57;3.10;;;2.20;;
27857;SDS011;16852;51.446;6.528;2024-02-26T08:22:58;3.80;;;2.25;;
27857;SDS011;16852;51.446;6.528;2024-02-26T08:24:59;6.25;;;2.30;;
27857;SDS011;16852;51.446;6.528;2024-02-26T08:26:59;5.60;;;2.20;;
27857;SDS011;16852;51.446;6.528;2024-02-26T08:29:00;3.72;;;2.05;;
27857;SDS011;16852;51.446;6.528;2024-02-26T08:31:01;3.53;;;2.25;;
27857;SDS011;16852;51.446;6.528;2024-02-26T08:33:02;3.90;;;2.25;;
27857;SDS011;16852;51.446;6.528;2024-02-26T08:35:02;2.80;;;1.70;;
27857;SDS011;16852;51.446;6.528;2024-02-26T08:37:03;3.25;;;1.70;;
27857;SDS011;16852;51.446;6.528;2024-02-26T08:39:05;3.30;;;2.10;;
27857;SDS011;16852;51.446;6.528;2024-02-26T08:41:09;3.65;;;2.10;;
27857;SDS011;16852;51.446;6.528;2024-02-26T08:43:10;2.65;;;1.85;;
27857;SDS011;16852;51.446;6.528;2024-02-26T08:45:11;3.50;;;2.00;;
27857;SDS011;16852;51.446;6.528;2024-02-26T08:47:16;4.03;;;2.15;;
27857;SDS011;16852;51.446;6.528;2024-02-26T08:49:16;4.97;;;2.20;;
27857;SDS011;16852;51.446;6.528;2024-02-26T08:51:17;5.63;;;2.40;;
27857;SDS011;16852;51.446;6.528;2024-02-26T08:53:18;4.03;;;2.00;;
27857;SDS011;16852;51.446;6.528;2024-02-26T08:55:19;4.22;;;2.35;;
27857;SDS011;16852;51.446;6.528;2024-02-26T08:57:20;3.25;;;2.17;;
27857;SDS011;16852;51.446;6.528;2024-02-26T08:59:22;3.90;;;2.08;;
27857;SDS011;16852;51.446;6.528;2024-02-26T09:01:23;3.95;;;2.15;;
27857;SDS011;16852;51.446;6.528;2024-02-26T09:03:24;3.78;;;2.20;;
27857;SDS011;16852;51.446;6.528;2024-02-26T09:05:26;4.55;;;2.35;;
27857;SDS011;16852;51.446;6.528;2024-02-26T09:07:26;4.30;;;2.03;;
27857;SDS011;16852;51.446;6.528;2024-02-26T09:09:29;4.30;;;2.42;;
27857;SDS011;16852;51.446;6.528;2024-02-26T09:11:29;3.63;;;2.20;;
27857;SDS011;16852;51.446;6.528;2024-02-26T09:13:30;5.07;;;2.35;;
27857;SDS011;16852;51.446;6.528;2024-02-26T09:15:31;3.55;;;2.10;;
27857;SDS011;16852;51.446;6.528;2024-02-26T09:17:32;4.10;;;2.10;;
27857;SDS011;16852;51.446;6.528;2024-02-26T09:19:33;3.17;;;2.30;;
27857;SDS011;16852;51.446;6.528;2024-02-26T09:21:33;4.30;;;1.90;;
27857;SDS011;16852;51.446;6.528;2024-02-26T09:23:34;3.35;;;1.85;;
27857;SDS011;16852;51.446;6.528;2024-02-26T09:25:35;3.53;;;2.10;;
27857;SDS011;16852;51.446;6.528;2024-02-26T09:27:36;4.95;;;2.40;;
27857;SDS011;16852;51.446;6.528;2024-02-26T09:29:37;4.00;;;2.38;;
27857;SDS011;16852;51.446;6.528;2024-02-26T09:31:37;2.83;;;1.92;;
27857;SDS011;16852;51.446;6.528;2024-02-26T09:33:40;3.95;;;2.50;;
27857;SDS011;16852;51.446;6.528;2024-02-26T09:35:40;6.18;;;2.20;;
27857;SDS011;16852;51.446;6.528;2024-02-26T09:37:41;3.10;;;2.20;;
27857;SDS011;16852;51.446;6.528;2024-02-26T09:39:43;7.47;;;2.80;;
27857;SDS011;16852;51.446;6.528;2024-02-26T09:41:44;5.70;;;2.30;;
27857;SDS011;16852;51.446;6.528;2024-02-26T09:43:45;4.22;;;2.30;;
27857;SDS011;16852;51.446;6.528;2024-02-26T09:45:47;4.47;;;2.53;;
27857;SDS011;16852;51.446;6.528;2024-02-26T09:47:50;3.00;;;1.90;;
27857;SDS011;16852;51.446;6.528;2024-02-26T09:49:50;4.20;;;2.40;;
27857;SDS011;16852;51.446;6.528;2024-02-26T09:51:53;3.40;;;1.92;;
27857;SDS011;16852;51.446;6.528;2024-02-26T09:53:56;3.22;;;2.17;;
27857;SDS011;16852;51.446;6.528;2024-02-26T09:56:01;3.97;;;2.10;;
27857;SDS011;16852;51.446;6.528;2024-02-26T09:58:02;5.13;;;2.38;;
27857;SDS011;16852;51.446;6.528;2024-02-26T10:00:05;2.78;;;1.80;;
27857;SDS011;16852;51.446;6.528;2024-02-26T10:02:13;5.28;;;2.20;;
27857;SDS011;16852;51.446;6.528;2024-02-26T10:04:14;4.90;;;2.13;;
27857;SDS011;16852;51.446;6.528;2024-02-26T10:06:15;2.75;;;2.03;;
27857;SDS011;16852;51.446;6.528;2024-02-26T10:08:16;5.80;;;2.13;;
27857;SDS011;16852;51.446;6.528;2024-02-26T10:10:18;3.30;;;2.10;;
27857;SDS011;16852;51.446;6.528;2024-02-26T10:12:19;3.85;;;2.15;;
27857;SDS011;16852;51.446;6.528;2024-02-26T10:14:20;4.22;;;1.98;;
27857;SDS011;16852;51.446;6.528;2024-02-26T10:16:21;4.38;;;1.95;;
27857;SDS011;16852;51.446;6.528;2024-02-26T10:18:22;5.38;;;2.08;;
27857;SDS011;16852;51.446;6.528;2024-02-26T10:20:24;4.43;;;2.25;;
27857;SDS011;16852;51.446;6.528;2024-02-26T10:22:27;2.55;;;1.83;;
27857;SDS011;16852;51.446;6.528;2024-02-26T10:24:28;4.47;;;2.42;;
27857;SDS011;16852;51.446;6.528;2024-02-26T10:26:29;2.90;;;2.30;;
27857;SDS011;16852;51.446;6.528;2024-02-26T10:28:30;5.78;;;2.47;;
27857;SDS011;16852;51.446;6.528;2024-02-26T10:30:31;4.10;;;2.65;;
27857;SDS011;16852;51.446;6.528;2024-02-26T10:32:32;3.95;;;2.22;;
27857;SDS011;16852;51.446;6.528;2024-02-26T10:34:33;4.78;;;2.25;;
27857;SDS011;16852;51.446;6.528;2024-02-26T10:36:37;4.65;;;2.25;;
27857;SDS011;16852;51.446;6.528;2024-02-26T10:38:41;6.53;;;2.40;;
27857;SDS011;16852;51.446;6.528;2024-02-26T10:40:42;3.20;;;2.33;;
27857;SDS011;16852;51.446;6.528;2024-02-26T10:42:43;4.50;;;2.42;;
27857;SDS011;16852;51.446;6.528;2024-02-26T10:44:46;3.75;;;2.05;;
27857;SDS011;16852;51.446;6.528;2024-02-26T10:48:52;6.03;;;2.72;;
27857;SDS011;16852;51.446;6.528;2024-02-26T10:50:54;2.67;;;2.00;;
27857;SDS011;16852;51.446;6.528;2024-02-26T10:52:56;3.65;;;2.00;;
27857;SDS011;16852;51.446;6.528;2024-02-26T10:54:58;3.85;;;2.40;;
27857;SDS011;16852;51.446;6.528;2024-02-26T10:57:03;4.00;;;2.40;;
27857;SDS011;16852;51.446;6.528;2024-02-26T10:59:05;3.65;;;2.20;;
27857;SDS011;16852;51.446;6.528;2024-02-26T11:01:09;3.63;;;2.03;;
27857;SDS011;16852;51.446;6.528;2024-02-26T11:03:11;7.47;;;2.50;;
27857;SDS011;16852;51.446;6.528;2024-02-26T11:05:16;4.45;;;2.28;;
27857;SDS011;16852;51.446;6.528;2024-02-26T11:07:17;3.78;;;2.10;;
27857;SDS011;16852;51.446;6.528;2024-02-26T11:09:19;2.65;;;1.83;;
27857;SDS011;16852;51.446;6.528;2024-02-26T11:11:20;3.70;;;2.50;;
27857;SDS011;16852;51.446;6.528;2024-02-26T11:13:21;3.13;;;2.13;;
27857;SDS011;16852;51.446;6.528;2024-02-26T11:15:27;3.95;;;2.22;;
27857;SDS011;16852;51.446;6.528;2024-02-26T11:17:29;4.20;;;2.30;;
27857;SDS011;16852;51.446;6.528;2024-02-26T11:19:35;4.20;;;2.40;;
27857;SDS011;16852;51.446;6.528;2024-02-26T11:21:37;4.68;;;2.45;;
27857;SDS011;16852;51.446;6.528;2024-02-26T11:23:42;4.30;;;2.40;;
27857;SDS011;16852;51.446;6.528;2024-02-26T11:25:43;5.07;;;2.45;;
27857;SDS011;16852;51.446;6.528;2024-02-26T11:27:45;3.70;;;2.03;;
27857;SDS011;16852;51.446;6.528;2024-02-26T11:29:52;3.78;;;2.05;;
27857;SDS011;16852;51.446;6.528;2024-02-26T11:31:54;2.75;;;1.80;;
27857;SDS011;16852;51.446;6.528;2024-02-26T11:33:55;2.20;;;1.80;;
27857;SDS011;16852;51.446;6.528;2024-02-26T11:35:57;2.22;;;1.77;;
27857;SDS011;16852;51.446;6.528;2024-02-26T11:37:58;2.75;;;1.90;;
27857;SDS011;16852;51.446;6.528;2024-02-26T11:40:01;2.70;;;1.70;;
27857;SDS011;16852;51.446;6.528;2024-02-26T11:42:06;3.63;;;2.22;;
27857;SDS011;16852;51.446;6.528;2024-02-26T11:44:07;5.40;;;2.45;;
27857;SDS011;16852;51.446;6.528;2024-02-26T11:46:24;3.90;;;2.20;;
27857;SDS011;16852;51.446;6.528;2024-02-26T11:48:25;3.58;;;2.28;;
27857;SDS011;16852;51.446;6.528;2024-02-26T11:52:36;4.22;;;2.17;;
27857;SDS011;16852;51.446;6.528;2024-02-26T11:54:51;3.65;;;2.20;;
27857;SDS011;16852;51.446;6.528;2024-02-26T11:56:54;4.30;;;2.45;;
27857;SDS011;16852;51.446;6.528;2024-02-26T11:59:01;3.10;;;2.30;;
27857;SDS011;16852;51.446;6.528;2024-02-26T12:01:41;5.47;;;2.90;;
27857;SDS011;16852;51.446;6.528;2024-02-26T12:03:50;6.18;;;3.60;;
27857;SDS011;16852;51.446;6.528;2024-02-26T12:05:51;4.75;;;3.42;;
27857;SDS011;16852;51.446;6.528;2024-02-26T12:08:00;6.15;;;3.95;;
27857;SDS011;16852;51.446;6.528;2024-02-26T12:12:26;5.75;;;3.70;;
27857;SDS011;16852;51.446;6.528;2024-02-26T12:14:32;8.07;;;4.40;;
27857;SDS011;16852;51.446;6.528;2024-02-26T12:16:58;6.53;;;4.32;;
27857;SDS011;16852;51.446;6.528;2024-02-26T12:18:59;6.65;;;4.00;;
27857;SDS011;16852;51.446;6.528;2024-02-26T12:21:01;8.15;;;4.05;;